createdAt,value
2022-08-31T00:00:58.279Z,99829.09
2022-08-31T00:03:45.297Z,99826.69
2022-08-31T00:06:12.672Z,99829.12
2022-08-31T00:08:40.322Z,99823.03
2022-08-31T00:11:10.296Z,99830.25
2022-08-31T00:13:37.713Z,99830.97
2022-08-31T00:16:05.669Z,99830.50
2022-08-31T00:18:33.120Z,99833.06
2022-08-31T00:21:00.912Z,99835.34
2022-08-31T00:23:28.578Z,99831.81
2022-08-31T00:25:56.033Z,99834.22
2022-08-31T00:28:23.628Z,99833.41
2022-08-31T00:30:51.273Z,99834.19
2022-08-31T00:33:18.745Z,99834.53
2022-08-31T00:35:46.575Z,99833.91
2022-08-31T00:38:14.911Z,99835.78
2022-08-31T00:40:45.852Z,99833.16
2022-08-31T00:43:38.211Z,99844.72
2022-08-31T00:46:06.352Z,99842.34
2022-08-31T00:48:35.793Z,99842.75
2022-08-31T00:51:04.065Z,99834.00
2022-08-31T00:53:31.462Z,99850.03
2022-08-31T00:55:59.297Z,99851.03
2022-08-31T00:58:27.083Z,99847.81
2022-08-31T01:00:54.554Z,99847.28
2022-08-31T01:03:23.045Z,99851.16
2022-08-31T01:05:51.017Z,99852.00
2022-08-31T01:08:18.866Z,99846.50
2022-08-31T01:10:55.183Z,99856.53
2022-08-31T01:13:22.623Z,99857.84
2022-08-31T01:15:58.124Z,99847.03
2022-08-31T01:18:25.874Z,99850.16
2022-08-31T01:21:00.915Z,99845.31
2022-08-31T01:23:42.756Z,99854.84
2022-08-31T01:26:13.826Z,99847.47
2022-08-31T01:28:41.515Z,99855.53
2022-08-31T01:31:14.286Z,99854.84
2022-08-31T01:33:42.111Z,99861.09
2022-08-31T01:36:13.168Z,99857.19
2022-08-31T01:38:44.236Z,99858.88
2022-08-31T01:41:12.976Z,99854.00
2022-08-31T01:43:41.878Z,99860.53
2022-08-31T01:46:13.196Z,99856.87
2022-08-31T01:48:43.359Z,99853.81
2022-08-31T01:51:12.833Z,99858.13
2022-08-31T01:53:42.144Z,99852.28
2022-08-31T01:56:14.527Z,99852.59
2022-08-31T01:58:42.098Z,99845.69
2022-08-31T02:01:32.669Z,99855.41
2022-08-31T02:04:02.535Z,99853.38
2022-08-31T02:06:30.719Z,99856.25
2022-08-31T02:08:58.470Z,99849.25
2022-08-31T02:11:26.236Z,99850.91
2022-08-31T02:13:53.760Z,99844.47
2022-08-31T02:16:21.481Z,99861.06
2022-08-31T02:18:48.966Z,99851.13
2022-08-31T02:21:16.515Z,99850.59
2022-08-31T02:23:44.622Z,99847.34
2022-08-31T02:26:12.455Z,99851.78
2022-08-31T02:28:40.421Z,99840.91
2022-08-31T02:31:08.743Z,99832.06
2022-08-31T02:33:37.869Z,99830.53
2022-08-31T02:36:06.513Z,99833.37
2022-08-31T02:38:35.352Z,99832.56
2022-08-31T02:41:03.736Z,99833.91
2022-08-31T02:43:31.598Z,99833.94
2022-08-31T02:45:59.070Z,99847.25
2022-08-31T02:48:27.444Z,99844.19
2022-08-31T02:50:55.069Z,99842.75
2022-08-31T02:53:23.498Z,99838.09
2022-08-31T02:55:52.087Z,99835.47
2022-08-31T02:58:23.834Z,99828.69
2022-08-31T03:00:52.480Z,99831.66
2022-08-31T03:03:20.460Z,99840.41
2022-08-31T03:05:49.590Z,99839.06
2022-08-31T03:08:17.879Z,99838.88
2022-08-31T03:10:46.425Z,99835.31
2022-08-31T03:13:13.877Z,99842.53
2022-08-31T03:15:43.936Z,99845.56
2022-08-31T03:18:12.173Z,99845.56
2022-08-31T03:20:39.566Z,99844.81
2022-08-31T03:23:09.275Z,99838.59
2022-08-31T03:25:39.609Z,99840.94
2022-08-31T03:28:07.941Z,99838.25
2022-08-31T03:30:35.795Z,99846.09
2022-08-31T03:33:03.598Z,99839.06
2022-08-31T03:35:31.739Z,99845.09
2022-08-31T03:37:59.198Z,99847.38
2022-08-31T03:40:26.643Z,99837.62
2022-08-31T03:42:54.447Z,99845.41
2022-08-31T03:45:21.935Z,99844.28
2022-08-31T03:47:49.338Z,99845.00
2022-08-31T03:50:17.350Z,99844.09
2022-08-31T03:52:46.279Z,99845.19
2022-08-31T03:55:14.057Z,99841.91
2022-08-31T03:57:41.835Z,99833.97
2022-08-31T04:00:10.157Z,99838.16
2022-08-31T04:02:40.910Z,99840.72
2022-08-31T04:05:17.967Z,99837.62
2022-08-31T04:07:56.809Z,99848.69
2022-08-31T04:10:31.313Z,99843.28
2022-08-31T04:13:05.832Z,99852.44
2022-08-31T04:15:36.390Z,99851.91
2022-08-31T04:18:06.218Z,99851.31
2022-08-31T04:20:38.541Z,99848.31
2022-08-31T04:23:06.315Z,99847.31
2022-08-31T04:25:38.846Z,99850.38
2022-08-31T04:28:09.079Z,99854.28
2022-08-31T04:30:41.177Z,99851.19
2022-08-31T04:33:09.297Z,99853.16
2022-08-31T04:35:39.799Z,99849.09
2022-08-31T04:38:07.449Z,99849.50
2022-08-31T04:40:39.027Z,99851.72
2022-08-31T04:43:07.880Z,99853.16
2022-08-31T04:45:35.396Z,99849.03
2022-08-31T04:48:03.373Z,99846.63
2022-08-31T04:50:31.316Z,99851.00
2022-08-31T04:53:06.885Z,99854.81
2022-08-31T04:55:34.373Z,99862.88
2022-08-31T04:58:01.801Z,99858.06
2022-08-31T05:00:29.479Z,99858.91
2022-08-31T05:02:59.208Z,99861.13
2022-08-31T05:05:26.654Z,99856.78
2022-08-31T05:07:54.366Z,99851.06
2022-08-31T05:10:23.333Z,99857.47
2022-08-31T05:12:52.354Z,99859.19
2022-08-31T05:15:20.605Z,99864.44
2022-08-31T05:17:48.321Z,99860.41
2022-08-31T05:20:15.736Z,99867.44
2022-08-31T05:22:43.446Z,99863.34
2022-08-31T05:25:11.216Z,99864.69
2022-08-31T05:27:39.683Z,99867.47
2022-08-31T05:30:08.561Z,99864.22
2022-08-31T05:32:37.964Z,99870.72
2022-08-31T05:35:07.712Z,99866.78
2022-08-31T05:37:35.189Z,99872.31
2022-08-31T05:40:02.889Z,99872.78
2022-08-31T05:42:30.614Z,99871.25
2022-08-31T05:44:58.367Z,99871.94
2022-08-31T05:47:25.784Z,99869.13
2022-08-31T05:49:54.055Z,99867.47
2022-08-31T05:52:24.797Z,99867.84
2022-08-31T05:54:53.043Z,99869.97
2022-08-31T05:57:23.420Z,99865.28
2022-08-31T05:59:54.837Z,99867.16
2022-08-31T06:02:22.282Z,99864.37
2022-08-31T06:04:51.987Z,99871.31
2022-08-31T06:07:19.937Z,99867.41
2022-08-31T06:09:47.727Z,99873.34
2022-08-31T06:12:17.518Z,99882.31
2022-08-31T06:14:47.902Z,99890.00
2022-08-31T06:17:17.750Z,99886.16
2022-08-31T06:19:45.288Z,99890.31
2022-08-31T06:22:12.694Z,99887.97
2022-08-31T06:24:40.862Z,99883.53
2022-08-31T06:27:08.334Z,99879.56
2022-08-31T06:29:36.524Z,99887.88
2022-08-31T06:32:10.071Z,99882.69
2022-08-31T06:34:39.588Z,99885.09
2022-08-31T06:37:18.953Z,99881.75
2022-08-31T06:39:47.771Z,99888.03
2022-08-31T06:42:15.642Z,99874.56
2022-08-31T06:44:45.788Z,99887.88
2022-08-31T06:47:14.103Z,99882.44
2022-08-31T06:49:41.846Z,99881.38
2022-08-31T06:52:09.301Z,99883.50
2022-08-31T06:54:37.041Z,99882.34
2022-08-31T06:57:17.159Z,99886.78
2022-08-31T06:59:45.852Z,99893.25
2022-08-31T07:02:13.665Z,99891.97
2022-08-31T07:04:41.346Z,99903.63
2022-08-31T07:07:11.476Z,99899.75
2022-08-31T07:09:41.190Z,99893.41
2022-08-31T07:12:09.186Z,99900.41
2022-08-31T07:14:37.617Z,99902.84
2022-08-31T07:17:06.034Z,99906.84
2022-08-31T07:19:33.796Z,99900.84
2022-08-31T07:22:05.184Z,99901.66
2022-08-31T07:24:35.154Z,99904.44
2022-08-31T07:27:10.998Z,99899.03
2022-08-31T07:29:43.230Z,99913.28
2022-08-31T07:32:12.891Z,99902.16
2022-08-31T07:34:41.197Z,99904.09
2022-08-31T07:37:28.785Z,99903.69
2022-08-31T07:40:15.592Z,99901.66
2022-08-31T07:42:44.796Z,99905.62
2022-08-31T07:45:23.073Z,99902.31
2022-08-31T07:47:52.767Z,99894.78
2022-08-31T07:50:22.118Z,99898.12
2022-08-31T07:52:54.587Z,99889.69
2022-08-31T07:55:29.187Z,99891.94
2022-08-31T07:57:58.063Z,99884.06
2022-08-31T08:00:29.210Z,99890.78
2022-08-31T08:03:01.694Z,99892.66
2022-08-31T08:05:37.386Z,99898.47
2022-08-31T08:08:12.249Z,99892.19
2022-08-31T08:10:43.659Z,99882.25
2022-08-31T08:13:20.548Z,99886.22
2022-08-31T08:15:51.899Z,99881.72
2022-08-31T08:18:20.650Z,99881.41
2022-08-31T08:20:49.500Z,99880.34
2022-08-31T08:23:18.314Z,99877.59
2022-08-31T08:25:47.379Z,99884.94
2022-08-31T08:28:39.780Z,99876.63
2022-08-31T08:31:13.311Z,99869.75
2022-08-31T08:33:40.924Z,99878.91
2022-08-31T08:36:09.086Z,99872.69
2022-08-31T08:38:39.562Z,99874.38
2022-08-31T08:41:12.889Z,99875.56
2022-08-31T08:43:50.134Z,99878.50
2022-08-31T08:47:35.187Z,99868.88
2022-08-31T08:49:23.446Z,99870.69
2022-08-31T08:51:56.747Z,99862.94
2022-08-31T08:54:36.338Z,99857.81
2022-08-31T08:57:23.782Z,99859.78
2022-08-31T08:59:54.972Z,99862.63
2022-08-31T09:02:35.458Z,99862.72
2022-08-31T09:05:39.495Z,99872.69
2022-08-31T09:08:29.090Z,99857.44
2022-08-31T09:11:18.599Z,99856.50
2022-08-31T09:14:08.145Z,99864.91
2022-08-31T09:17:33.978Z,99852.91
2022-08-31T09:20:05.677Z,99848.25
2022-08-31T09:22:56.037Z,99855.53
2022-08-31T09:25:38.672Z,99847.50
2022-08-31T09:28:08.691Z,99838.84
2022-08-31T09:30:45.114Z,99842.00
2022-08-31T09:33:26.821Z,99833.81
2022-08-31T09:36:13.742Z,99835.72
2022-08-31T09:38:43.522Z,99829.88
2022-08-31T09:41:29.347Z,99832.72
2022-08-31T09:44:21.771Z,99824.53
2022-08-31T09:46:54.680Z,99822.56
2022-08-31T09:49:26.719Z,99820.34
2022-08-31T09:52:18.975Z,99819.16
2022-08-31T09:55:17.567Z,99819.81
2022-08-31T09:58:04.398Z,99822.78
2022-08-31T10:00:36.656Z,99819.59
2022-08-31T10:03:28.350Z,99814.44
2022-08-31T10:05:56.966Z,99817.09
2022-08-31T10:08:57.060Z,99809.94
2022-08-31T10:11:27.156Z,99805.34
2022-08-31T10:14:00.531Z,99800.75
2022-08-31T10:16:52.404Z,99806.31
2022-08-31T10:19:51.797Z,99795.06
2022-08-31T10:22:28.273Z,99792.84
2022-08-31T10:25:12.815Z,99793.81
2022-08-31T10:27:48.674Z,99786.69
2022-08-31T10:30:31.648Z,99774.84
2022-08-31T10:33:12.105Z,99775.59
2022-08-31T10:35:58.002Z,99784.41
2022-08-31T10:38:31.530Z,99771.50
2022-08-31T10:41:18.719Z,99774.94
2022-08-31T10:44:26.812Z,99771.47
2022-08-31T10:46:59.025Z,99766.16
2022-08-31T10:49:26.597Z,99750.66
2022-08-31T10:52:02.421Z,99763.09
2022-08-31T10:54:50.345Z,99762.19
2022-08-31T10:57:31.474Z,99764.75
2022-08-31T11:00:31.819Z,99759.19
2022-08-31T11:03:26.113Z,99759.06
2022-08-31T11:06:00.435Z,99752.69
2022-08-31T11:08:34.708Z,99760.16
2022-08-31T11:11:05.994Z,99748.22
2022-08-31T11:13:51.220Z,99748.41
2022-08-31T11:16:54.086Z,99755.19
2022-08-31T11:20:00.696Z,99743.91
2022-08-31T11:22:40.962Z,99748.13
2022-08-31T11:25:47.558Z,99736.97
2022-08-31T11:28:34.285Z,99735.25
2022-08-31T11:31:06.634Z,99725.25
2022-08-31T11:33:34.934Z,99735.47
2022-08-31T11:36:10.235Z,99723.34
2022-08-31T11:39:03.629Z,99716.63
2022-08-31T11:41:31.201Z,99717.53
2022-08-31T11:44:04.414Z,99711.72
2022-08-31T11:46:35.050Z,99713.91
2022-08-31T11:49:02.457Z,99717.09
2022-08-31T11:51:38.621Z,99716.56
2022-08-31T11:54:26.560Z,99710.44
2022-08-31T11:56:56.716Z,99715.53
2022-08-31T11:59:32.693Z,99701.13
2022-08-31T12:02:20.038Z,99715.56
2022-08-31T12:04:53.808Z,99716.16
2022-08-31T12:07:39.342Z,99722.56
2022-08-31T12:10:08.968Z,99706.97
2022-08-31T12:12:57.511Z,99711.53
2022-08-31T12:15:39.565Z,99712.97
2022-08-31T12:18:29.108Z,99701.75
2022-08-31T12:21:48.812Z,99701.72
2022-08-31T12:24:34.181Z,99700.22
2022-08-31T12:27:31.425Z,99700.25
2022-08-31T12:30:18.483Z,99694.56
2022-08-31T12:33:09.016Z,99688.56
2022-08-31T12:35:37.705Z,99683.63
2022-08-31T12:38:10.675Z,99690.84
2022-08-31T12:40:45.981Z,99688.16
2022-08-31T12:43:20.212Z,99686.59
2022-08-31T12:46:09.087Z,99680.59
2022-08-31T12:49:07.766Z,99673.78
2022-08-31T12:51:47.108Z,99670.53
2022-08-31T12:54:27.111Z,99667.81
2022-08-31T12:57:09.762Z,99664.84
2022-08-31T13:00:07.810Z,99667.59
2022-08-31T13:02:47.386Z,99672.41
2022-08-31T13:05:27.305Z,99660.53
2022-08-31T13:07:54.954Z,99660.25
2022-08-31T13:10:22.460Z,99671.13
2022-08-31T13:12:57.993Z,99671.44
2022-08-31T13:15:39.155Z,99671.09
2022-08-31T13:18:21.214Z,99667.97
2022-08-31T13:20:53.679Z,99672.66
2022-08-31T13:23:28.690Z,99663.94
2022-08-31T13:26:09.957Z,99658.78
2022-08-31T13:28:37.336Z,99659.41
2022-08-31T13:31:12.032Z,99662.19
2022-08-31T13:33:40.662Z,99659.03
2022-08-31T13:36:33.359Z,99656.25
2022-08-31T13:39:11.806Z,99647.22
2022-08-31T13:41:56.217Z,99649.19
2022-08-31T13:44:31.796Z,99649.50
2022-08-31T13:47:02.982Z,99645.78
2022-08-31T13:49:35.451Z,99647.69
2022-08-31T13:52:06.514Z,99637.06
2022-08-31T13:54:35.994Z,99640.56
2022-08-31T13:57:22.774Z,99634.84
2022-08-31T13:59:50.325Z,99636.31
2022-08-31T14:02:22.148Z,99633.25
2022-08-31T14:04:58.115Z,99627.34
2022-08-31T14:07:43.927Z,99631.78
2022-08-31T14:10:15.043Z,99629.22
2022-08-31T14:13:05.148Z,99629.13
2022-08-31T14:15:54.181Z,99631.16
2022-08-31T14:18:28.330Z,99625.19
2022-08-31T14:21:26.928Z,99633.44
2022-08-31T14:24:04.740Z,99623.44
2022-08-31T14:26:37.686Z,99630.16
2022-08-31T14:29:11.032Z,99630.03
2022-08-31T14:31:41.413Z,99621.13
2022-08-31T14:34:36.638Z,99626.56
2022-08-31T14:37:19.893Z,99620.91
2022-08-31T14:39:54.105Z,99613.81
2022-08-31T14:42:43.554Z,99610.41
2022-08-31T14:45:18.735Z,99621.56
2022-08-31T14:47:50.748Z,99626.66
2022-08-31T14:50:23.626Z,99622.34
2022-08-31T14:52:58.441Z,99618.84
2022-08-31T14:55:27.450Z,99611.66
2022-08-31T14:58:10.964Z,99613.59
2022-08-31T15:00:49.779Z,99611.09
2022-08-31T15:03:24.449Z,99616.00
2022-08-31T15:05:51.866Z,99613.09
2022-08-31T15:08:23.278Z,99603.41
2022-08-31T15:11:07.272Z,99613.09
2022-08-31T15:13:39.107Z,99611.28
2022-08-31T15:16:08.135Z,99610.88
2022-08-31T15:18:36.350Z,99607.63
2022-08-31T15:21:05.312Z,99611.13
2022-08-31T15:23:33.938Z,99606.97
2022-08-31T15:26:08.024Z,99597.63
2022-08-31T15:28:40.858Z,99600.50
2022-08-31T15:31:25.549Z,99600.53
2022-08-31T15:33:55.349Z,99592.47
2022-08-31T15:36:25.727Z,99595.09
2022-08-31T15:38:56.195Z,99601.31
2022-08-31T15:41:26.784Z,99592.09
2022-08-31T15:43:54.519Z,99597.06
2022-08-31T15:46:40.843Z,99586.44
2022-08-31T15:49:10.583Z,99586.59
2022-08-31T15:51:46.916Z,99591.00
2022-08-31T15:54:22.188Z,99590.00
2022-08-31T15:56:54.083Z,99593.41
2022-08-31T15:59:22.943Z,99588.87
2022-08-31T16:01:51.616Z,99576.06
2022-08-31T16:04:23.676Z,99584.38
2022-08-31T16:06:52.831Z,99578.00
2022-08-31T16:09:21.330Z,99585.03
2022-08-31T16:11:50.579Z,99583.97
2022-08-31T16:14:18.441Z,99582.50
2022-08-31T16:16:48.458Z,99587.84
2022-08-31T16:19:34.125Z,99591.00
2022-08-31T16:22:04.510Z,99584.31
2022-08-31T16:24:37.040Z,99582.44
2022-08-31T16:27:08.045Z,99582.19
2022-08-31T16:29:36.129Z,99589.94
2022-08-31T16:32:06.750Z,99585.81
2022-08-31T16:34:36.079Z,99589.50
2022-08-31T16:37:10.499Z,99589.81
2022-08-31T16:39:40.559Z,99585.72
2022-08-31T16:42:11.020Z,99587.22
2022-08-31T16:44:40.071Z,99594.66
2022-08-31T16:47:09.705Z,99590.09
2022-08-31T16:49:40.330Z,99595.66
2022-08-31T16:52:11.127Z,99591.34
2022-08-31T16:54:45.051Z,99591.38
2022-08-31T16:57:14.630Z,99597.53
2022-08-31T16:59:42.117Z,99604.34
2022-08-31T17:02:14.228Z,99597.97
2022-08-31T17:04:58.842Z,99604.19
2022-08-31T17:07:26.157Z,99597.03
2022-08-31T17:10:01.895Z,99603.63
2022-08-31T17:12:29.378Z,99593.69
2022-08-31T17:14:58.193Z,99592.59
2022-08-31T17:17:26.575Z,99597.44
2022-08-31T17:19:58.746Z,99594.22
2022-08-31T17:22:32.478Z,99604.19
2022-08-31T17:25:04.497Z,99593.78
2022-08-31T17:27:33.865Z,99597.78
2022-08-31T17:30:05.331Z,99592.69
2022-08-31T17:32:36.562Z,99600.25
2022-08-31T17:35:17.531Z,99599.09
2022-08-31T17:37:45.841Z,99617.38
2022-08-31T17:40:14.568Z,99609.38
2022-08-31T17:42:44.382Z,99619.09
2022-08-31T17:45:12.224Z,99617.72
2022-08-31T17:47:40.131Z,99633.66
2022-08-31T17:50:08.164Z,99628.94
2022-08-31T17:52:35.946Z,99633.16
2022-08-31T17:55:04.055Z,99639.66
2022-08-31T17:57:31.454Z,99636.84
2022-08-31T17:59:59.152Z,99638.03
2022-08-31T18:02:32.423Z,99649.28
2022-08-31T18:05:01.511Z,99651.16
2022-08-31T18:07:29.060Z,99656.09
2022-08-31T18:09:56.801Z,99649.19
2022-08-31T18:12:25.760Z,99648.19
2022-08-31T18:14:53.991Z,99640.81
2022-08-31T18:17:22.463Z,99648.75
2022-08-31T18:19:50.566Z,99652.28
2022-08-31T18:22:19.871Z,99643.53
2022-08-31T18:24:47.350Z,99649.16
2022-08-31T18:27:17.599Z,99650.41
2022-08-31T18:29:46.377Z,99649.63
2022-08-31T18:32:14.275Z,99655.34
2022-08-31T18:34:47.443Z,99654.75
2022-08-31T18:37:22.238Z,99661.28
2022-08-31T18:40:09.061Z,99664.59
2022-08-31T18:42:57.006Z,99669.19
2022-08-31T18:45:27.191Z,99664.88
2022-08-31T18:50:46.768Z,99673.87
2022-08-31T18:53:29.314Z,99667.91
2022-08-31T18:56:09.111Z,99674.41
2022-08-31T18:58:38.120Z,99662.94
2022-08-31T19:01:10.244Z,99676.75
2022-08-31T19:03:38.142Z,99675.13
2022-08-31T19:06:07.012Z,99671.97
2022-08-31T19:08:35.913Z,99680.63
2022-08-31T19:11:07.318Z,99683.38
2022-08-31T19:13:35.400Z,99685.88
2022-08-31T19:16:14.712Z,99688.25
2022-08-31T19:18:44.662Z,99676.84
2022-08-31T19:21:17.595Z,99674.13
2022-08-31T19:23:46.517Z,99671.56
2022-08-31T19:26:27.643Z,99680.00
2022-08-31T19:28:56.467Z,99674.56
2022-08-31T19:31:26.970Z,99679.75
2022-08-31T19:33:58.069Z,99679.06
2022-08-31T19:36:27.751Z,99688.78
2022-08-31T19:38:56.593Z,99698.63
2022-08-31T19:41:25.906Z,99684.16
2022-08-31T19:44:07.263Z,99689.28
2022-08-31T19:46:41.597Z,99691.22
2022-08-31T19:49:11.308Z,99681.97
2022-08-31T19:51:42.249Z,99680.63
2022-08-31T19:54:12.583Z,99684.44
2022-08-31T19:56:43.943Z,99689.19
2022-08-31T19:59:18.481Z,99691.16
2022-08-31T20:01:48.076Z,99692.47
2022-08-31T20:04:17.123Z,99709.63
2022-08-31T20:06:45.720Z,99710.84
2022-08-31T20:09:13.619Z,99703.34
2022-08-31T20:11:42.632Z,99707.72
2022-08-31T20:14:10.787Z,99704.16
2022-08-31T20:16:43.103Z,99717.97
2022-08-31T20:19:14.534Z,99715.97
2022-08-31T20:21:42.236Z,99714.59
2022-08-31T20:24:12.807Z,99707.00
2022-08-31T20:26:47.310Z,99704.63
2022-08-31T20:29:20.086Z,99698.44
2022-08-31T20:31:50.637Z,99706.69
2022-08-31T20:34:21.782Z,99710.50
2022-08-31T20:36:52.294Z,99704.19
2022-08-31T20:39:20.052Z,99694.38
2022-08-31T20:41:50.147Z,99712.31
2022-08-31T20:44:21.414Z,99697.94
2022-08-31T20:47:13.002Z,99708.22
2022-08-31T20:49:44.191Z,99702.25
2022-08-31T20:52:14.453Z,99704.88
2022-08-31T20:54:45.121Z,99710.34
2022-08-31T20:57:13.764Z,99709.66
2022-08-31T20:59:41.565Z,99713.66
2022-08-31T21:02:10.205Z,99709.69
2022-08-31T21:04:43.905Z,99709.59
2022-08-31T21:07:13.211Z,99712.69
2022-08-31T21:09:43.051Z,99719.69
2022-08-31T21:12:17.875Z,99714.34
2022-08-31T21:14:46.495Z,99711.94
2022-08-31T21:17:15.888Z,99714.50
2022-08-31T21:19:44.069Z,99721.94
2022-08-31T21:22:14.062Z,99714.16
2022-08-31T21:24:43.563Z,99720.00
2022-08-31T21:27:14.381Z,99716.56
2022-08-31T21:29:43.529Z,99716.09
2022-08-31T21:32:10.965Z,99712.75
2022-08-31T21:34:38.451Z,99706.00
2022-08-31T21:37:08.548Z,99716.09
2022-08-31T21:39:36.991Z,99716.25
2022-08-31T21:42:04.665Z,99721.44
2022-08-31T21:44:32.435Z,99717.88
2022-08-31T21:46:59.830Z,99715.12
2022-08-31T21:49:27.220Z,99709.28
2022-08-31T21:51:56.474Z,99710.44
2022-08-31T21:54:27.373Z,99721.78
2022-08-31T21:56:57.441Z,99711.22
2022-08-31T21:59:27.909Z,99712.22
2022-08-31T22:02:00.278Z,99707.19
2022-08-31T22:04:29.164Z,99712.84
2022-08-31T22:06:57.728Z,99712.69
2022-08-31T22:09:26.276Z,99709.28
2022-08-31T22:11:56.577Z,99707.16
2022-08-31T22:14:30.319Z,99704.22
2022-08-31T22:16:59.508Z,99703.94
2022-08-31T22:19:28.501Z,99709.56
2022-08-31T22:22:00.905Z,99708.31
2022-08-31T22:24:31.396Z,99715.47
2022-08-31T22:27:01.640Z,99721.47
2022-08-31T22:29:31.651Z,99716.91
2022-08-31T22:32:02.294Z,99718.37
2022-08-31T22:34:29.999Z,99721.09
2022-08-31T22:36:57.466Z,99721.63
2022-08-31T22:39:28.482Z,99724.88
2022-08-31T22:41:57.461Z,99724.38
2022-08-31T22:44:26.734Z,99740.34
2022-08-31T22:46:57.064Z,99740.81
2022-08-31T22:49:25.961Z,99750.66
2022-08-31T22:51:54.357Z,99757.94
2022-08-31T22:54:22.021Z,99762.78
2022-08-31T22:56:50.181Z,99763.22
2022-08-31T22:59:27.146Z,99770.72
2022-08-31T23:01:59.198Z,99769.53
2022-08-31T23:04:28.133Z,99781.59
2022-08-31T23:06:57.467Z,99788.84
2022-08-31T23:09:27.817Z,99792.97
2022-08-31T23:11:56.809Z,99800.94
2022-08-31T23:14:24.551Z,99807.16
2022-08-31T23:16:58.964Z,99807.75
2022-08-31T23:19:32.756Z,99805.63
2022-08-31T23:22:01.581Z,99813.38
2022-08-31T23:24:41.269Z,99809.75
2022-08-31T23:27:10.367Z,99808.34
2022-08-31T23:29:40.668Z,99805.50
2022-08-31T23:32:12.037Z,99800.22
2022-08-31T23:34:41.755Z,99798.03
2022-08-31T23:37:10.601Z,99793.50
2022-08-31T23:39:40.962Z,99798.38
2022-08-31T23:42:11.201Z,99795.00
2022-08-31T23:44:42.653Z,99789.13
2022-08-31T23:47:13.583Z,99795.91
2022-08-31T23:49:42.433Z,99794.63
2022-08-31T23:52:11.964Z,99796.81
2022-08-31T23:54:39.898Z,99796.91
2022-08-31T23:57:08.482Z,99797.56
2022-08-31T23:59:52.919Z,99809.13
